createdAt,value
2023-05-05T00:01:08.575Z,8.65
2023-05-05T00:03:35.624Z,8.10
2023-05-05T00:06:02.929Z,6.85
2023-05-05T00:08:29.909Z,10.18
2023-05-05T00:10:56.537Z,10.95
2023-05-05T00:13:24.665Z,10.07
2023-05-05T00:15:53.154Z,8.32
2023-05-05T00:18:20.506Z,7.43
2023-05-05T00:20:47.733Z,8.02
2023-05-05T00:23:14.773Z,11.23
2023-05-05T00:25:41.334Z,9.23
2023-05-05T00:28:07.980Z,9.73
2023-05-05T00:30:35.968Z,8.32
2023-05-05T00:33:02.526Z,7.18
2023-05-05T00:35:30.559Z,8.35
2023-05-05T00:37:57.168Z,6.65
2023-05-05T00:40:23.911Z,11.38
2023-05-05T00:42:50.445Z,8.57
2023-05-05T00:45:18.506Z,8.93
2023-05-05T00:47:48.284Z,8.68
2023-05-05T00:50:22.041Z,8.00
2023-05-05T00:52:49.278Z,10.57
2023-05-05T00:55:16.278Z,9.48
2023-05-05T00:57:44.020Z,8.25
2023-05-05T01:00:11.514Z,7.32
2023-05-05T01:02:39.316Z,8.50
2023-05-05T01:05:08.185Z,9.18
2023-05-05T01:07:43.955Z,9.40
2023-05-05T01:10:20.643Z,6.78
2023-05-05T01:12:57.300Z,10.35
2023-05-05T01:15:31.967Z,8.10
2023-05-05T01:18:06.322Z,7.30
2023-05-05T01:20:40.987Z,9.82
2023-05-05T01:23:09.616Z,8.43
2023-05-05T01:26:09.651Z,11.18
2023-05-05T01:28:54.680Z,8.85
2023-05-05T01:31:46.998Z,8.77
2023-05-05T01:34:16.593Z,8.13
2023-05-05T01:36:49.483Z,10.15
2023-05-05T01:39:16.857Z,8.02
2023-05-05T01:41:46.969Z,9.23
2023-05-05T01:44:15.531Z,7.70
2023-05-05T01:46:43.431Z,10.38
2023-05-05T01:49:11.545Z,12.93
2023-05-05T01:51:39.524Z,7.22
2023-05-05T01:54:08.533Z,8.77
2023-05-05T01:56:38.592Z,10.63
2023-05-05T01:59:05.851Z,9.10
2023-05-05T02:01:35.393Z,9.50
2023-05-05T02:04:05.540Z,8.13
2023-05-05T02:06:33.703Z,9.50
2023-05-05T02:09:02.356Z,11.02
2023-05-05T02:11:29.787Z,9.88
2023-05-05T02:13:58.788Z,9.65
2023-05-05T02:16:26.039Z,10.20
2023-05-05T02:18:54.257Z,7.97
2023-05-05T02:21:22.224Z,8.38
2023-05-05T02:23:48.808Z,8.30
2023-05-05T02:26:16.813Z,7.85
2023-05-05T02:28:48.755Z,8.95
2023-05-05T02:31:17.795Z,9.43
2023-05-05T02:33:47.235Z,10.32
2023-05-05T02:36:18.886Z,8.32
2023-05-05T02:38:58.847Z,8.10
2023-05-05T02:41:29.956Z,9.55
2023-05-05T02:44:00.738Z,7.93
2023-05-05T02:46:29.291Z,25.27
2023-05-05T02:48:56.472Z,11.20
2023-05-05T02:51:22.951Z,8.25
2023-05-05T02:53:49.756Z,9.45
2023-05-05T02:56:26.754Z,6.78
2023-05-05T02:59:02.573Z,9.35
2023-05-05T03:01:40.036Z,8.25
2023-05-05T03:04:15.215Z,7.75
2023-05-05T03:06:49.804Z,7.50
2023-05-05T03:09:27.561Z,12.05
2023-05-05T03:12:01.199Z,12.48
2023-05-05T03:14:35.010Z,7.75
2023-05-05T03:17:04.277Z,7.97
2023-05-05T03:19:31.892Z,7.60
2023-05-05T03:22:03.365Z,7.00
2023-05-05T03:24:31.416Z,7.57
2023-05-05T03:27:05.583Z,7.72
2023-05-05T03:29:36.540Z,9.90
2023-05-05T03:32:06.315Z,7.43
2023-05-05T03:34:33.476Z,9.40
2023-05-05T03:37:03.076Z,9.65
2023-05-05T03:39:30.026Z,7.97
2023-05-05T03:41:57.289Z,8.45
2023-05-05T03:44:27.689Z,7.85
2023-05-05T03:46:54.275Z,9.80
2023-05-05T03:49:21.050Z,8.77
2023-05-05T03:51:48.524Z,12.25
2023-05-05T03:54:15.308Z,8.43
2023-05-05T03:56:41.819Z,11.07
2023-05-05T03:59:08.439Z,8.82
2023-05-05T04:01:36.388Z,10.80
2023-05-05T04:04:03.093Z,9.73
2023-05-05T04:06:29.703Z,9.60
2023-05-05T04:08:56.276Z,7.70
2023-05-05T04:11:22.815Z,9.43
2023-05-05T04:13:50.085Z,7.65
2023-05-05T04:16:17.483Z,8.43
2023-05-05T04:18:45.383Z,7.75
2023-05-05T04:21:12.039Z,6.57
2023-05-05T04:23:39.820Z,7.78
2023-05-05T04:26:06.954Z,9.23
2023-05-05T04:28:33.501Z,7.03
2023-05-05T04:31:00.050Z,7.75
2023-05-05T04:33:27.566Z,10.55
2023-05-05T04:35:55.622Z,10.10
2023-05-05T04:38:22.402Z,9.65
2023-05-05T04:40:49.041Z,8.38
2023-05-05T04:43:16.619Z,7.00
2023-05-05T04:45:52.122Z,8.52
2023-05-05T04:48:20.004Z,14.35
2023-05-05T04:50:46.915Z,8.35
2023-05-05T04:53:15.242Z,8.60
2023-05-05T04:55:41.826Z,9.85
2023-05-05T04:58:08.394Z,8.00
2023-05-05T05:00:35.870Z,7.72
2023-05-05T05:03:02.714Z,7.35
2023-05-05T05:05:29.293Z,6.72
2023-05-05T05:07:56.054Z,7.65
2023-05-05T05:10:24.571Z,7.28
2023-05-05T05:12:51.169Z,9.40
2023-05-05T05:15:17.732Z,7.43
2023-05-05T05:17:44.473Z,8.07
2023-05-05T05:20:12.582Z,7.82
2023-05-05T05:22:39.328Z,9.30
2023-05-05T05:25:10.558Z,7.50
2023-05-05T05:27:38.602Z,7.90
2023-05-05T05:30:06.402Z,6.80
2023-05-05T05:32:33.905Z,10.75
2023-05-05T05:35:01.081Z,6.50
2023-05-05T05:37:28.654Z,7.18
2023-05-05T05:39:55.653Z,7.70
2023-05-05T05:42:23.701Z,7.57
2023-05-05T05:44:51.949Z,7.85
2023-05-05T05:47:18.655Z,6.97
2023-05-05T05:49:45.685Z,7.97
2023-05-05T05:52:12.224Z,6.38
2023-05-05T05:54:39.585Z,8.82
2023-05-05T05:57:07.493Z,8.35
2023-05-05T05:59:34.041Z,6.85
2023-05-05T06:02:02.339Z,6.47
2023-05-05T06:04:29.458Z,9.40
2023-05-05T06:06:56.142Z,9.68
2023-05-05T06:09:22.972Z,6.60
2023-05-05T06:11:50.090Z,6.72
2023-05-05T06:14:18.029Z,6.20
2023-05-05T06:16:45.114Z,7.40
2023-05-05T06:19:17.604Z,7.07
2023-05-05T06:21:44.312Z,7.32
2023-05-05T06:24:11.608Z,6.57
2023-05-05T06:26:38.325Z,9.18
2023-05-05T06:29:04.806Z,9.50
2023-05-05T06:31:31.424Z,9.02
2023-05-05T06:33:57.928Z,7.22
2023-05-05T06:36:26.002Z,8.60
2023-05-05T06:38:52.593Z,7.55
2023-05-05T06:41:19.139Z,10.40
2023-05-05T06:43:45.632Z,7.68
2023-05-05T06:46:13.536Z,8.20
2023-05-05T06:48:40.081Z,7.53
2023-05-05T06:51:06.712Z,7.13
2023-05-05T06:53:34.657Z,8.10
2023-05-05T06:56:01.359Z,7.05
2023-05-05T06:58:28.102Z,8.85
2023-05-05T07:00:54.686Z,6.93
2023-05-05T07:03:21.358Z,7.63
2023-05-05T07:05:48.021Z,7.68
2023-05-05T07:08:14.528Z,18.65
2023-05-05T07:10:42.426Z,11.07
2023-05-05T07:13:09.029Z,8.52
2023-05-05T07:15:35.847Z,8.80
2023-05-05T07:18:02.435Z,8.40
2023-05-05T07:20:29.027Z,10.60
2023-05-05T07:22:55.929Z,7.75
2023-05-05T07:25:22.629Z,8.10
2023-05-05T07:27:50.539Z,15.25
2023-05-05T07:30:19.068Z,9.02
2023-05-05T07:32:46.154Z,12.18
2023-05-05T07:35:13.248Z,8.25
2023-05-05T07:37:40.070Z,9.82
2023-05-05T07:40:08.097Z,10.20
2023-05-05T07:42:34.754Z,11.23
2023-05-05T07:45:02.831Z,8.23
2023-05-05T07:47:29.688Z,14.18
2023-05-05T07:49:56.509Z,10.30
2023-05-05T07:52:33.178Z,13.52
2023-05-05T07:55:09.699Z,13.77
2023-05-05T07:57:36.249Z,13.60
2023-05-05T08:00:05.810Z,11.90
2023-05-05T08:02:38.918Z,11.15
2023-05-05T08:05:06.608Z,14.30
2023-05-05T08:07:33.467Z,12.35
2023-05-05T08:10:00.216Z,13.77
2023-05-05T08:12:26.728Z,9.02
2023-05-05T08:14:53.256Z,14.88
2023-05-05T08:17:21.128Z,12.27
2023-05-05T08:19:51.271Z,13.15
2023-05-05T08:22:17.748Z,14.15
2023-05-05T08:24:44.662Z,10.32
2023-05-05T08:27:11.234Z,13.65
2023-05-05T08:29:37.738Z,15.55
2023-05-05T08:32:04.496Z,13.50
2023-05-05T08:34:32.337Z,12.68
2023-05-05T08:36:58.854Z,17.17
2023-05-05T08:39:25.427Z,12.15
2023-05-05T08:41:51.967Z,14.05
2023-05-05T08:44:18.511Z,12.35
2023-05-05T08:46:45.820Z,15.63
2023-05-05T08:49:15.940Z,10.77
2023-05-05T08:51:45.437Z,11.05
2023-05-05T08:54:17.619Z,12.02
2023-05-05T08:56:46.957Z,12.05
2023-05-05T08:59:14.438Z,14.05
2023-05-05T09:01:41.734Z,13.20
2023-05-05T09:04:09.042Z,12.45
2023-05-05T09:06:35.694Z,13.25
2023-05-05T09:09:03.680Z,11.27
2023-05-05T09:11:31.032Z,13.05
2023-05-05T09:13:57.631Z,13.68
2023-05-05T09:16:24.270Z,14.68
2023-05-05T09:18:50.783Z,12.30
2023-05-05T09:21:21.319Z,12.40
2023-05-05T09:24:10.125Z,13.03
2023-05-05T09:26:38.047Z,11.82
2023-05-05T09:29:05.527Z,8.55
2023-05-05T09:31:34.038Z,9.38
2023-05-05T09:34:01.186Z,10.50
2023-05-05T09:36:51.947Z,8.88
2023-05-05T09:39:20.418Z,9.00
2023-05-05T09:41:47.042Z,10.73
2023-05-05T09:44:14.124Z,12.63
2023-05-05T09:46:50.131Z,10.80
2023-05-05T09:49:18.194Z,10.13
2023-05-05T09:51:45.156Z,12.90
2023-05-05T09:54:23.470Z,11.93
2023-05-05T09:56:50.481Z,8.45
2023-05-05T09:59:17.207Z,10.95
2023-05-05T10:01:44.119Z,9.70
2023-05-05T10:04:22.929Z,8.90
2023-05-05T10:06:49.555Z,8.98
2023-05-05T10:09:16.106Z,11.32
2023-05-05T10:11:46.077Z,10.48
2023-05-05T10:14:14.276Z,10.88
2023-05-05T10:16:46.211Z,10.18
2023-05-05T10:19:14.961Z,7.95
2023-05-05T10:21:45.819Z,11.20
2023-05-05T10:24:20.372Z,9.52
2023-05-05T10:26:49.716Z,7.80
2023-05-05T10:29:22.939Z,8.00
2023-05-05T10:31:53.805Z,7.50
2023-05-05T10:34:26.960Z,7.18
2023-05-05T10:36:53.648Z,9.13
2023-05-05T10:39:20.164Z,6.30
2023-05-05T10:41:48.236Z,8.63
2023-05-05T10:44:15.115Z,9.88
2023-05-05T10:46:43.032Z,10.13
2023-05-05T10:49:17.766Z,8.57
2023-05-05T10:51:49.765Z,8.77
2023-05-05T10:54:22.990Z,8.00
2023-05-05T10:56:51.732Z,8.88
2023-05-05T10:59:39.352Z,8.75
2023-05-05T11:02:18.626Z,9.70
2023-05-05T11:05:06.861Z,8.15
2023-05-05T11:07:33.968Z,7.88
2023-05-05T11:10:02.022Z,7.28
2023-05-05T11:12:31.543Z,7.93
2023-05-05T11:15:33.838Z,7.65
2023-05-05T11:18:03.143Z,8.80
2023-05-05T11:21:03.589Z,10.77
2023-05-05T11:23:30.808Z,8.25
2023-05-05T11:25:57.994Z,12.88
2023-05-05T11:28:27.343Z,8.57
2023-05-05T11:31:16.203Z,10.63
2023-05-05T11:33:42.989Z,11.90
2023-05-05T11:36:11.015Z,8.70
2023-05-05T11:38:51.339Z,6.82
2023-05-05T11:41:33.104Z,7.90
2023-05-05T11:44:11.018Z,6.65
2023-05-05T11:46:39.079Z,11.40
2023-05-05T11:49:06.614Z,5.00
2023-05-05T11:51:33.530Z,5.53
2023-05-05T11:54:00.069Z,6.15
2023-05-05T11:56:26.689Z,5.20
2023-05-05T11:59:08.058Z,4.78
2023-05-05T12:01:39.767Z,4.35
2023-05-05T12:04:06.738Z,2.85
2023-05-05T12:06:33.522Z,1.75
2023-05-05T12:09:00.197Z,8.50
2023-05-05T12:11:26.817Z,5.90
2023-05-05T12:14:07.578Z,6.30
2023-05-05T12:16:35.562Z,3.25
2023-05-05T12:19:05.788Z,3.33
2023-05-05T12:21:32.661Z,3.35
2023-05-05T12:23:59.330Z,2.28
2023-05-05T12:26:27.030Z,5.15
2023-05-05T12:28:53.835Z,7.00
2023-05-05T12:31:20.476Z,8.00
2023-05-05T12:33:48.653Z,3.05
2023-05-05T12:36:15.616Z,2.55
2023-05-05T12:38:42.574Z,2.90
2023-05-05T12:41:09.256Z,3.65
2023-05-05T12:43:35.783Z,3.53
2023-05-05T12:46:05.753Z,4.15
2023-05-05T12:48:32.667Z,1.83
2023-05-05T12:51:17.458Z,4.13
2023-05-05T12:53:44.746Z,3.05
2023-05-05T12:56:29.348Z,7.20
2023-05-05T12:58:56.152Z,2.17
2023-05-05T13:01:22.723Z,2.85
2023-05-05T13:04:06.970Z,5.22
2023-05-05T13:06:35.195Z,6.20
2023-05-05T13:09:01.761Z,3.55
2023-05-05T13:11:28.406Z,2.15
2023-05-05T13:13:54.885Z,1.65
2023-05-05T13:16:21.613Z,1.73
2023-05-05T13:18:49.773Z,4.05
2023-05-05T13:21:16.507Z,3.30
2023-05-05T13:23:44.727Z,2.45
2023-05-05T13:26:11.539Z,5.57
2023-05-05T13:28:38.154Z,4.63
2023-05-05T13:31:04.818Z,3.03
2023-05-05T13:33:33.712Z,6.20
2023-05-05T13:36:00.289Z,4.80
2023-05-05T13:38:26.965Z,3.28
2023-05-05T13:40:54.938Z,2.58
2023-05-05T13:43:21.482Z,1.98
2023-05-05T13:45:48.127Z,1.45
2023-05-05T13:48:14.662Z,2.13
2023-05-05T13:50:41.459Z,2.60
2023-05-05T13:53:07.967Z,4.45
2023-05-05T13:55:34.561Z,2.20
2023-05-05T13:58:02.578Z,2.55
2023-05-05T14:00:29.190Z,1.98
2023-05-05T14:02:55.767Z,2.60
2023-05-05T14:05:22.506Z,3.75
2023-05-05T14:07:49.182Z,2.45
2023-05-05T14:10:15.786Z,3.60
2023-05-05T14:12:42.390Z,4.97
2023-05-05T14:15:11.037Z,1.50
2023-05-05T14:17:37.781Z,3.60
2023-05-05T14:20:05.544Z,3.25
2023-05-05T14:22:32.098Z,2.55
2023-05-05T14:24:58.695Z,2.08
2023-05-05T14:27:25.256Z,4.35
2023-05-05T14:29:51.780Z,2.55
2023-05-05T14:32:19.624Z,2.65
2023-05-05T14:34:47.203Z,2.30
2023-05-05T14:37:15.526Z,1.42
2023-05-05T14:39:42.236Z,3.53
2023-05-05T14:42:08.808Z,2.35
2023-05-05T14:44:35.430Z,2.45
2023-05-05T14:47:02.039Z,2.03
2023-05-05T14:49:29.980Z,1.40
2023-05-05T14:51:56.875Z,3.15
2023-05-05T14:54:28.466Z,1.95
2023-05-05T14:56:55.668Z,2.42
2023-05-05T14:59:22.272Z,3.25
2023-05-05T15:01:48.933Z,3.60
2023-05-05T15:04:16.159Z,1.85
2023-05-05T15:06:44.135Z,2.67
2023-05-05T15:09:10.646Z,2.83
2023-05-05T15:11:37.212Z,5.50
2023-05-05T15:14:03.706Z,2.75
2023-05-05T15:16:30.821Z,5.18
2023-05-05T15:18:58.180Z,3.92
2023-05-05T15:21:24.745Z,4.07
2023-05-05T15:23:52.591Z,4.45
2023-05-05T15:26:19.314Z,3.50
2023-05-05T15:28:46.548Z,3.80
2023-05-05T15:31:14.440Z,2.72
2023-05-05T15:33:40.999Z,3.08
2023-05-05T15:36:08.460Z,3.08
2023-05-05T15:38:40.877Z,3.80
2023-05-05T15:41:08.851Z,2.78
2023-05-05T15:43:35.580Z,5.32
2023-05-05T15:46:02.113Z,4.30
2023-05-05T15:48:28.842Z,3.97
2023-05-05T15:50:55.440Z,2.08
2023-05-05T15:53:22.049Z,4.20
2023-05-05T15:55:48.590Z,3.42
2023-05-05T15:58:16.411Z,3.78
2023-05-05T16:00:43.121Z,5.10
2023-05-05T16:03:09.752Z,6.55
2023-05-05T16:05:36.341Z,4.22
2023-05-05T16:08:02.943Z,4.07
2023-05-05T16:10:29.557Z,2.72
2023-05-05T16:12:56.201Z,6.10
2023-05-05T16:15:24.427Z,5.20
2023-05-05T16:17:51.030Z,2.67
2023-05-05T16:20:17.632Z,3.72
2023-05-05T16:22:44.716Z,4.00
2023-05-05T16:25:11.381Z,4.40
2023-05-05T16:27:38.012Z,5.50
2023-05-05T16:30:05.418Z,5.47
2023-05-05T16:32:33.390Z,4.43
2023-05-05T16:34:59.978Z,4.05
2023-05-05T16:37:26.540Z,12.43
2023-05-05T16:39:53.079Z,4.32
2023-05-05T16:42:19.652Z,6.20
2023-05-05T16:44:46.255Z,5.18
2023-05-05T16:47:12.733Z,5.28
2023-05-05T16:49:40.663Z,5.40
2023-05-05T16:52:07.177Z,5.35
2023-05-05T16:54:33.771Z,4.10
2023-05-05T16:57:00.286Z,3.38
2023-05-05T16:59:26.905Z,3.40
2023-05-05T17:01:53.453Z,7.00
2023-05-05T17:04:20.091Z,4.03
2023-05-05T17:06:47.917Z,3.95
2023-05-05T17:09:14.458Z,5.20
2023-05-05T17:11:40.934Z,4.82
2023-05-05T17:14:07.547Z,5.18
2023-05-05T17:16:34.221Z,3.90
2023-05-05T17:19:00.826Z,5.55
2023-05-05T17:21:27.328Z,5.57
2023-05-05T17:23:55.224Z,2.70
2023-05-05T17:26:21.708Z,6.68
2023-05-05T17:28:48.303Z,2.55
2023-05-05T17:31:14.834Z,6.40
2023-05-05T17:33:41.428Z,3.30
2023-05-05T17:36:08.751Z,3.50
2023-05-05T17:38:35.274Z,6.40
2023-05-05T17:41:03.123Z,4.03
2023-05-05T17:43:29.676Z,5.00
2023-05-05T17:45:56.150Z,6.25
2023-05-05T17:48:22.838Z,5.20
2023-05-05T17:50:49.384Z,4.90
2023-05-05T17:53:15.902Z,4.40
2023-05-05T17:55:44.556Z,5.70
2023-05-05T17:58:12.545Z,4.30
2023-05-05T18:00:39.079Z,9.27
2023-05-05T18:03:05.710Z,5.05
2023-05-05T18:05:32.396Z,6.45
2023-05-05T18:07:58.993Z,6.13
2023-05-05T18:10:25.506Z,4.63
2023-05-05T18:12:52.262Z,5.28
2023-05-05T18:15:20.160Z,6.18
2023-05-05T18:17:46.793Z,5.70
2023-05-05T18:20:13.678Z,4.35
2023-05-05T18:22:40.230Z,5.93
2023-05-05T18:25:08.341Z,4.20
2023-05-05T18:27:34.996Z,3.30
2023-05-05T18:30:01.726Z,3.53
2023-05-05T18:32:29.635Z,9.40
2023-05-05T18:34:56.144Z,5.10
2023-05-05T18:37:22.748Z,6.15
2023-05-05T18:39:49.260Z,5.43
2023-05-05T18:42:15.852Z,6.82
2023-05-05T18:44:42.392Z,5.20
2023-05-05T18:47:09.122Z,6.70
2023-05-05T18:49:37.152Z,5.95
2023-05-05T18:52:03.976Z,5.25
2023-05-05T18:54:30.483Z,5.05
2023-05-05T18:56:57.085Z,4.80
2023-05-05T18:59:23.950Z,4.82
2023-05-05T19:01:51.148Z,6.53
2023-05-05T19:04:30.220Z,6.03
2023-05-05T19:06:59.661Z,7.47
2023-05-05T19:09:26.376Z,4.25
2023-05-05T19:11:53.014Z,5.15
2023-05-05T19:14:19.475Z,4.72
2023-05-05T19:16:46.155Z,6.50
2023-05-05T19:19:12.803Z,7.18
2023-05-05T19:21:39.489Z,4.40
2023-05-05T19:24:08.489Z,4.15
2023-05-05T19:26:35.126Z,5.93
2023-05-05T19:29:01.622Z,4.60
2023-05-05T19:31:28.286Z,5.88
2023-05-05T19:33:59.495Z,9.13
2023-05-05T19:36:26.092Z,4.47
2023-05-05T19:38:52.665Z,7.50
2023-05-05T19:41:20.597Z,7.30
2023-05-05T19:43:47.074Z,8.15
2023-05-05T19:46:14.412Z,5.13
2023-05-05T19:48:40.923Z,6.53
2023-05-05T19:51:07.538Z,4.72
2023-05-05T19:53:34.082Z,6.43
2023-05-05T19:56:00.868Z,7.13
2023-05-05T19:58:28.702Z,6.75
2023-05-05T20:00:55.222Z,6.22
2023-05-05T20:03:21.853Z,4.90
2023-05-05T20:05:48.539Z,7.47
2023-05-05T20:08:15.430Z,7.28
2023-05-05T20:10:41.983Z,6.80
2023-05-05T20:13:08.603Z,6.47
2023-05-05T20:15:36.668Z,6.03
2023-05-05T20:18:03.391Z,6.50
2023-05-05T20:20:29.954Z,5.90
2023-05-05T20:22:56.451Z,5.47
2023-05-05T20:25:23.088Z,7.13
2023-05-05T20:27:49.645Z,6.65
2023-05-05T20:30:16.235Z,9.00
2023-05-05T20:32:44.128Z,7.93
2023-05-05T20:35:10.716Z,9.20
2023-05-05T20:37:37.217Z,5.55
2023-05-05T20:40:04.190Z,7.05
2023-05-05T20:42:30.680Z,8.50
2023-05-05T20:44:57.340Z,6.68
2023-05-05T20:47:23.868Z,6.40
2023-05-05T20:49:51.808Z,7.00
2023-05-05T20:52:18.333Z,6.25
2023-05-05T20:54:44.953Z,42.30
2023-05-05T20:57:11.491Z,8.55
2023-05-05T20:59:38.212Z,13.13
2023-05-05T21:02:04.814Z,7.03
2023-05-05T21:04:31.488Z,7.13
2023-05-05T21:06:59.403Z,9.52
2023-05-05T21:09:26.067Z,6.40
2023-05-05T21:11:52.585Z,9.27
2023-05-05T21:14:19.141Z,8.30
2023-05-05T21:16:45.736Z,13.20
2023-05-05T21:19:12.298Z,15.20
2023-05-05T21:21:38.827Z,23.48
2023-05-05T21:24:08.137Z,18.98
2023-05-05T21:26:34.779Z,28.40
2023-05-05T21:29:01.351Z,24.42
2023-05-05T21:31:27.893Z,16.23
2023-05-05T21:33:54.440Z,29.45
2023-05-05T21:36:20.927Z,20.95
2023-05-05T21:38:47.486Z,12.48
2023-05-05T21:41:15.330Z,9.98
2023-05-05T21:43:42.027Z,15.82
2023-05-05T21:46:08.601Z,16.60
2023-05-05T21:48:35.291Z,14.90
2023-05-05T21:51:01.786Z,11.23
2023-05-05T21:53:28.368Z,22.05
2023-05-05T21:55:54.871Z,18.20
2023-05-05T21:58:23.397Z,21.42
2023-05-05T22:00:50.168Z,24.67
2023-05-05T22:03:16.989Z,26.13
2023-05-05T22:05:43.539Z,24.83
2023-05-05T22:08:10.111Z,17.35
2023-05-05T22:10:36.712Z,17.70
2023-05-05T22:13:03.330Z,22.52
2023-05-05T22:15:38.908Z,20.10
2023-05-05T22:18:09.712Z,19.45
2023-05-05T22:20:36.967Z,24.08
2023-05-05T22:23:03.488Z,14.88
2023-05-05T22:25:30.149Z,13.95
2023-05-05T22:27:56.688Z,14.27
2023-05-05T22:30:23.153Z,13.00
2023-05-05T22:32:51.105Z,21.10
2023-05-05T22:35:17.650Z,21.58
2023-05-05T22:37:44.186Z,12.70
2023-05-05T22:40:11.525Z,12.30
2023-05-05T22:42:38.240Z,15.60
2023-05-05T22:45:05.332Z,13.38
2023-05-05T22:47:31.974Z,14.82
2023-05-05T22:49:59.875Z,13.95
2023-05-05T22:52:26.385Z,11.35
2023-05-05T22:54:52.880Z,14.50
2023-05-05T22:57:19.472Z,17.15
2023-05-05T22:59:46.024Z,24.60
2023-05-05T23:02:12.648Z,16.40
2023-05-05T23:04:39.478Z,22.50
2023-05-05T23:07:07.452Z,17.35
2023-05-05T23:09:33.950Z,19.60
2023-05-05T23:12:00.454Z,18.50
2023-05-05T23:14:27.097Z,24.20
2023-05-05T23:16:53.721Z,14.20
2023-05-05T23:19:20.330Z,15.40
2023-05-05T23:21:53.398Z,15.98
2023-05-05T23:24:21.816Z,17.60
2023-05-05T23:26:48.341Z,24.50
2023-05-05T23:29:14.889Z,16.63
2023-05-05T23:31:41.600Z,13.73
2023-05-05T23:34:08.473Z,20.48
2023-05-05T23:36:34.955Z,16.60
2023-05-05T23:39:01.483Z,19.08
2023-05-05T23:41:29.334Z,13.35
2023-05-05T23:43:56.432Z,9.60
2023-05-05T23:46:23.177Z,9.88
2023-05-05T23:48:50.195Z,11.65
2023-05-05T23:51:16.840Z,12.30
2023-05-05T23:53:43.481Z,8.35
2023-05-05T23:56:09.996Z,9.50
2023-05-05T23:58:37.941Z,8.73
